createdAt,value
2023-02-22T00:00:46.911Z,70.35
2023-02-22T00:03:16.644Z,69.67
2023-02-22T00:05:46.158Z,72.10
2023-02-22T00:08:17.830Z,71.97
2023-02-22T00:10:45.076Z,71.97
2023-02-22T00:13:14.818Z,71.03
2023-02-22T00:15:41.689Z,70.58
2023-02-22T00:18:09.549Z,69.97
2023-02-22T00:20:37.001Z,69.90
2023-02-22T00:23:04.020Z,70.30
2023-02-22T00:25:30.994Z,69.54
2023-02-22T00:27:57.924Z,70.03
2023-02-22T00:30:27.376Z,69.90
2023-02-22T00:32:56.818Z,70.57
2023-02-22T00:35:26.288Z,70.32
2023-02-22T00:37:55.960Z,70.08
2023-02-22T00:40:25.554Z,70.98
2023-02-22T00:42:52.969Z,70.14
2023-02-22T00:45:24.573Z,71.20
2023-02-22T00:47:52.150Z,72.22
2023-02-22T00:50:19.608Z,72.69
2023-02-22T00:52:47.428Z,72.29
2023-02-22T00:55:22.011Z,71.88
2023-02-22T00:57:48.998Z,71.60
2023-02-22T01:00:42.616Z,71.01
2023-02-22T01:03:11.593Z,70.49
2023-02-22T01:05:39.110Z,70.30
2023-02-22T01:08:08.425Z,70.26
2023-02-22T01:10:36.548Z,70.83
2023-02-22T01:13:04.884Z,70.42
2023-02-22T01:15:31.908Z,70.42
2023-02-22T01:17:59.845Z,69.99
2023-02-22T01:20:28.060Z,70.08
2023-02-22T01:22:56.955Z,69.88
2023-02-22T01:25:26.973Z,69.49
2023-02-22T01:27:54.435Z,69.55
2023-02-22T01:30:24.452Z,69.61
2023-02-22T01:32:52.038Z,69.45
2023-02-22T01:35:23.208Z,69.26
2023-02-22T01:37:50.512Z,69.99
2023-02-22T01:40:39.669Z,69.79
2023-02-22T01:43:26.347Z,69.64
2023-02-22T01:46:07.765Z,69.83
2023-02-22T01:49:03.248Z,70.20
2023-02-22T01:51:34.283Z,69.41
2023-02-22T01:54:06.913Z,69.55
2023-02-22T01:56:38.370Z,68.79
2023-02-22T01:59:10.746Z,69.56
2023-02-22T02:01:39.838Z,70.06
2023-02-22T02:04:12.975Z,69.56
2023-02-22T02:06:40.239Z,69.20
2023-02-22T02:09:45.053Z,69.42
2023-02-22T02:12:14.789Z,69.08
2023-02-22T02:14:43.250Z,68.59
2023-02-22T02:17:13.726Z,68.92
2023-02-22T02:20:08.264Z,68.80
2023-02-22T02:22:49.312Z,70.40
2023-02-22T02:25:49.717Z,70.69
2023-02-22T02:28:33.022Z,69.46
2023-02-22T02:31:27.858Z,69.30
2023-02-22T02:34:04.512Z,71.05
2023-02-22T02:36:52.156Z,70.77
2023-02-22T02:39:46.234Z,69.95
2023-02-22T02:42:18.601Z,69.91
2023-02-22T02:45:12.218Z,70.41
2023-02-22T02:47:45.740Z,72.78
2023-02-22T02:50:15.349Z,74.67
2023-02-22T02:52:44.696Z,76.17
2023-02-22T02:55:12.450Z,75.54
2023-02-22T02:57:39.437Z,74.86
2023-02-22T03:00:08.198Z,73.75
2023-02-22T03:02:37.689Z,73.19
2023-02-22T03:05:40.005Z,73.25
2023-02-22T03:08:17.738Z,72.65
2023-02-22T03:11:05.429Z,75.26
2023-02-22T03:14:01.369Z,74.67
2023-02-22T03:16:50.226Z,73.59
2023-02-22T03:19:38.650Z,73.38
2023-02-22T03:22:31.404Z,73.67
2023-02-22T03:25:14.361Z,73.52
2023-02-22T03:27:47.554Z,75.14
2023-02-22T03:30:22.605Z,74.87
2023-02-22T03:32:57.490Z,74.47
2023-02-22T03:35:28.483Z,74.63
2023-02-22T03:37:59.165Z,74.29
2023-02-22T03:40:33.777Z,74.67
2023-02-22T03:43:36.966Z,73.35
2023-02-22T03:46:05.792Z,73.06
2023-02-22T03:48:38.441Z,72.66
2023-02-22T03:51:06.126Z,72.93
2023-02-22T03:53:34.893Z,73.17
2023-02-22T03:56:05.020Z,74.56
2023-02-22T03:58:34.234Z,74.29
2023-02-22T04:01:01.113Z,74.66
2023-02-22T04:03:28.153Z,73.41
2023-02-22T04:05:55.032Z,73.30
2023-02-22T04:08:21.861Z,72.90
2023-02-22T04:10:48.825Z,72.47
2023-02-22T04:13:15.676Z,72.39
2023-02-22T04:15:42.749Z,72.30
2023-02-22T04:18:13.156Z,72.06
2023-02-22T04:20:40.012Z,71.78
2023-02-22T04:23:06.947Z,71.90
2023-02-22T04:25:33.980Z,71.78
2023-02-22T04:28:00.846Z,73.86
2023-02-22T04:30:27.737Z,75.47
2023-02-22T04:32:54.642Z,75.47
2023-02-22T04:35:21.483Z,75.88
2023-02-22T04:37:48.290Z,75.75
2023-02-22T04:40:16.845Z,75.35
2023-02-22T04:42:43.742Z,75.29
2023-02-22T04:45:11.300Z,75.54
2023-02-22T04:47:38.280Z,74.95
2023-02-22T04:50:08.597Z,75.12
2023-02-22T04:52:35.733Z,75.91
2023-02-22T04:55:02.879Z,76.04
2023-02-22T04:57:30.166Z,75.21
2023-02-22T04:59:57.260Z,74.76
2023-02-22T05:02:24.368Z,75.00
2023-02-22T05:04:51.320Z,73.09
2023-02-22T05:07:18.242Z,73.24
2023-02-22T05:09:47.947Z,72.50
2023-02-22T05:12:15.505Z,72.49
2023-02-22T05:14:42.351Z,71.17
2023-02-22T05:17:09.404Z,70.28
2023-02-22T05:19:36.374Z,68.66
2023-02-22T05:22:03.249Z,69.54
2023-02-22T05:24:30.273Z,68.88
2023-02-22T05:26:57.122Z,69.13
2023-02-22T05:29:24.046Z,68.57
2023-02-22T05:31:51.038Z,67.54
2023-02-22T05:34:18.014Z,67.33
2023-02-22T05:36:45.049Z,65.82
2023-02-22T05:39:12.205Z,65.37
2023-02-22T05:41:39.062Z,63.26
2023-02-22T05:44:06.017Z,62.67
2023-02-22T05:46:33.384Z,63.19
2023-02-22T05:49:00.267Z,63.78
2023-02-22T05:51:27.254Z,64.64
2023-02-22T05:53:54.312Z,65.15
2023-02-22T05:56:38.104Z,63.06
2023-02-22T05:59:05.074Z,62.69
2023-02-22T06:01:32.006Z,62.68
2023-02-22T06:03:58.809Z,63.17
2023-02-22T06:06:25.678Z,63.48
2023-02-22T06:08:52.514Z,65.70
2023-02-22T06:11:19.649Z,65.94
2023-02-22T06:13:51.480Z,67.79
2023-02-22T06:16:18.821Z,68.99
2023-02-22T06:18:45.728Z,68.66
2023-02-22T06:21:12.679Z,68.52
2023-02-22T06:23:39.568Z,66.82
2023-02-22T06:26:06.639Z,66.53
2023-02-22T06:28:33.638Z,65.02
2023-02-22T06:31:00.439Z,64.48
2023-02-22T06:33:27.323Z,64.47
2023-02-22T06:35:54.414Z,65.47
2023-02-22T06:38:23.424Z,66.74
2023-02-22T06:40:50.581Z,66.88
2023-02-22T06:43:17.756Z,65.52
2023-02-22T06:45:44.664Z,65.43
2023-02-22T06:48:11.521Z,64.60
2023-02-22T06:50:38.458Z,64.14
2023-02-22T06:53:05.492Z,63.99
2023-02-22T06:55:34.508Z,64.58
2023-02-22T06:58:02.496Z,66.44
2023-02-22T07:00:30.812Z,66.68
2023-02-22T07:02:58.337Z,66.94
2023-02-22T07:05:27.486Z,67.57
2023-02-22T07:07:56.319Z,66.82
2023-02-22T07:10:27.107Z,66.30
2023-02-22T07:12:54.369Z,66.46
2023-02-22T07:15:22.911Z,67.83
2023-02-22T07:17:50.569Z,67.10
2023-02-22T07:20:18.781Z,66.79
2023-02-22T07:22:45.669Z,67.38
2023-02-22T07:25:12.755Z,66.65
2023-02-22T07:27:41.369Z,66.04
2023-02-22T07:30:20.068Z,64.94
2023-02-22T07:32:47.973Z,65.71
2023-02-22T07:35:32.465Z,63.65
2023-02-22T07:37:59.767Z,63.63
2023-02-22T07:40:27.309Z,62.75
2023-02-22T07:42:59.405Z,62.60
2023-02-22T07:45:31.760Z,61.52
2023-02-22T07:47:59.552Z,61.01
2023-02-22T07:50:28.497Z,60.92
2023-02-22T07:52:56.480Z,60.80
2023-02-22T07:55:26.316Z,60.89
2023-02-22T07:57:55.655Z,60.51
2023-02-22T08:00:31.511Z,59.42
2023-02-22T08:03:01.284Z,58.55
2023-02-22T08:05:29.992Z,58.60
2023-02-22T08:07:57.363Z,59.53
2023-02-22T08:10:26.663Z,58.71
2023-02-22T08:12:54.328Z,58.95
2023-02-22T08:15:41.891Z,57.92
2023-02-22T08:18:13.535Z,56.54
2023-02-22T08:20:42.642Z,56.44
2023-02-22T08:23:11.392Z,56.60
2023-02-22T08:25:38.604Z,55.40
2023-02-22T08:28:09.334Z,55.13
2023-02-22T08:30:39.979Z,54.95
2023-02-22T08:33:07.261Z,55.43
2023-02-22T08:35:34.595Z,55.42
2023-02-22T08:38:04.458Z,54.86
2023-02-22T08:40:35.268Z,55.44
2023-02-22T08:43:02.796Z,54.96
2023-02-22T08:45:29.795Z,55.49
2023-02-22T08:47:56.815Z,56.77
2023-02-22T08:50:31.825Z,54.86
2023-02-22T08:53:00.410Z,55.10
2023-02-22T08:55:29.701Z,55.14
2023-02-22T08:57:56.487Z,55.08
2023-02-22T09:00:24.363Z,55.29
2023-02-22T09:02:52.399Z,54.93
2023-02-22T09:05:20.636Z,55.03
2023-02-22T09:07:47.943Z,54.69
2023-02-22T09:10:21.278Z,54.63
2023-02-22T09:12:48.143Z,55.24
2023-02-22T09:15:15.457Z,54.18
2023-02-22T09:17:42.459Z,54.80
2023-02-22T09:20:10.654Z,54.32
2023-02-22T09:22:37.585Z,53.98
2023-02-22T09:25:16.335Z,52.88
2023-02-22T09:27:44.297Z,52.92
2023-02-22T09:30:29.465Z,52.62
2023-02-22T09:33:00.182Z,52.13
2023-02-22T09:35:27.767Z,52.50
2023-02-22T09:37:56.657Z,50.94
2023-02-22T09:40:24.924Z,50.80
2023-02-22T09:43:15.879Z,49.73
2023-02-22T09:45:51.978Z,48.81
2023-02-22T09:48:22.279Z,48.31
2023-02-22T09:50:51.294Z,47.73
2023-02-22T09:53:39.684Z,47.73
2023-02-22T09:56:13.337Z,48.14
2023-02-22T09:58:44.940Z,49.50
2023-02-22T10:01:40.145Z,48.78
2023-02-22T10:04:39.251Z,49.49
2023-02-22T10:07:15.915Z,47.95
2023-02-22T10:09:45.537Z,46.77
2023-02-22T10:12:36.023Z,47.85
2023-02-22T10:15:39.843Z,48.11
2023-02-22T10:19:03.863Z,48.35
2023-02-22T10:22:00.233Z,47.74
2023-02-22T10:24:45.945Z,47.90
2023-02-22T10:27:37.813Z,48.17
2023-02-22T10:30:25.876Z,47.30
2023-02-22T10:33:15.883Z,47.02
2023-02-22T10:35:47.243Z,47.02
2023-02-22T10:38:19.819Z,47.60
2023-02-22T10:40:55.610Z,46.31
2023-02-22T10:43:22.965Z,47.43
2023-02-22T10:45:57.397Z,46.16
2023-02-22T10:48:26.610Z,46.20
2023-02-22T10:51:00.275Z,46.10
2023-02-22T10:53:27.591Z,46.77
2023-02-22T10:56:19.677Z,46.88
2023-02-22T10:58:57.996Z,46.76
2023-02-22T11:01:32.959Z,46.07
2023-02-22T11:04:12.550Z,45.54
2023-02-22T11:06:42.607Z,46.00
2023-02-22T11:09:22.749Z,45.60
2023-02-22T11:12:07.171Z,44.01
2023-02-22T11:14:34.019Z,44.67
2023-02-22T11:17:06.700Z,44.96
2023-02-22T11:19:34.203Z,44.70
2023-02-22T11:22:21.854Z,44.63
2023-02-22T11:27:33.801Z,44.89
2023-02-22T11:30:25.471Z,44.47
2023-02-22T11:33:00.100Z,44.70
2023-02-22T11:35:32.444Z,43.47
2023-02-22T11:38:19.395Z,43.73
2023-02-22T11:40:46.303Z,42.31
2023-02-22T11:43:18.834Z,41.25
2023-02-22T11:46:07.041Z,42.27
2023-02-22T11:48:37.404Z,41.10
2023-02-22T11:51:08.754Z,41.72
2023-02-22T11:54:18.068Z,42.58
2023-02-22T11:56:50.584Z,41.74
2023-02-22T11:59:17.305Z,40.74
2023-02-22T12:01:56.840Z,41.07
2023-02-22T12:04:51.808Z,41.77
2023-02-22T12:08:13.791Z,42.00
2023-02-22T12:11:04.988Z,42.84
2023-02-22T12:13:59.731Z,43.32
2023-02-22T12:16:37.854Z,43.05
2023-02-22T12:19:40.195Z,41.70
2023-02-22T12:22:12.760Z,40.91
2023-02-22T12:24:48.880Z,40.30
2023-02-22T12:27:25.599Z,40.61
2023-02-22T12:30:01.461Z,40.68
2023-02-22T12:32:46.503Z,40.90
2023-02-22T12:35:26.690Z,40.20
2023-02-22T12:38:06.483Z,41.05
2023-02-22T12:41:01.748Z,40.88
2023-02-22T12:44:01.352Z,39.90
2023-02-22T12:46:31.965Z,40.57
2023-02-22T12:49:10.206Z,40.15
2023-02-22T12:51:46.262Z,39.71
2023-02-22T12:54:44.822Z,39.42
2023-02-22T12:57:23.936Z,40.23
2023-02-22T12:59:56.256Z,40.60
2023-02-22T13:02:31.387Z,40.28
2023-02-22T13:04:58.620Z,40.62
2023-02-22T13:08:02.091Z,40.31
2023-02-22T13:10:31.929Z,39.48
2023-02-22T13:13:09.062Z,36.01
2023-02-22T13:15:53.943Z,36.59
2023-02-22T13:18:26.739Z,36.58
2023-02-22T13:21:19.853Z,36.39
2023-02-22T13:24:05.327Z,35.67
2023-02-22T13:26:42.445Z,35.89
2023-02-22T13:29:18.880Z,35.24
2023-02-22T13:31:45.732Z,35.96
2023-02-22T13:34:31.151Z,34.67
2023-02-22T13:37:35.866Z,34.29
2023-02-22T13:40:26.296Z,34.86
2023-02-22T13:43:23.125Z,35.25
2023-02-22T13:46:16.656Z,34.58
2023-02-22T13:49:24.682Z,35.58
2023-02-22T13:52:07.287Z,35.35
2023-02-22T13:54:43.454Z,35.43
2023-02-22T13:57:37.308Z,36.23
2023-02-22T14:00:16.175Z,36.13
2023-02-22T14:03:14.094Z,35.77
2023-02-22T14:05:40.851Z,35.69
2023-02-22T14:08:28.005Z,35.33
2023-02-22T14:10:56.564Z,35.44
2023-02-22T14:13:24.794Z,35.97
2023-02-22T14:16:00.986Z,36.41
2023-02-22T14:18:43.969Z,37.16
2023-02-22T14:21:13.676Z,36.75
2023-02-22T14:23:56.058Z,37.60
2023-02-22T14:26:37.427Z,37.42
2023-02-22T14:29:10.038Z,37.97
2023-02-22T14:31:42.622Z,37.49
2023-02-22T14:34:17.691Z,37.91
2023-02-22T14:36:54.674Z,38.19
2023-02-22T14:39:36.838Z,38.52
2023-02-22T14:42:29.025Z,38.38
2023-02-22T14:45:08.138Z,38.06
2023-02-22T14:47:56.459Z,38.55
2023-02-22T14:50:42.407Z,38.85
2023-02-22T14:53:24.227Z,39.48
2023-02-22T14:55:57.875Z,39.82
2023-02-22T14:58:34.469Z,40.42
2023-02-22T15:01:17.366Z,40.79
2023-02-22T15:03:45.503Z,41.10
2023-02-22T15:06:19.020Z,41.14
2023-02-22T15:08:47.170Z,40.93
2023-02-22T15:11:29.067Z,41.57
2023-02-22T15:13:55.873Z,41.65
2023-02-22T15:16:25.291Z,41.70
2023-02-22T15:18:58.107Z,41.79
2023-02-22T15:21:28.321Z,41.83
2023-02-22T15:23:58.838Z,42.52
2023-02-22T15:26:31.368Z,42.53
2023-02-22T15:29:00.004Z,42.82
2023-02-22T15:31:32.250Z,43.47
2023-02-22T15:34:17.381Z,43.90
2023-02-22T15:36:48.226Z,43.91
2023-02-22T15:39:30.921Z,44.20
2023-02-22T15:42:10.642Z,44.73
2023-02-22T15:44:43.421Z,45.46
2023-02-22T15:47:25.529Z,45.27
2023-02-22T15:50:14.315Z,45.47
2023-02-22T15:52:49.263Z,46.49
2023-02-22T15:55:17.933Z,46.01
2023-02-22T15:57:44.746Z,46.12
2023-02-22T16:00:32.367Z,46.82
2023-02-22T16:02:59.755Z,46.29
2023-02-22T16:05:40.696Z,46.54
2023-02-22T16:08:22.505Z,46.46
2023-02-22T16:10:58.241Z,46.14
2023-02-22T16:13:32.675Z,47.34
2023-02-22T16:16:18.209Z,47.24
2023-02-22T16:18:45.124Z,47.59
2023-02-22T16:21:14.767Z,48.27
2023-02-22T16:24:06.940Z,47.71
2023-02-22T16:26:40.850Z,48.09
2023-02-22T16:29:09.406Z,48.40
2023-02-22T16:31:39.707Z,48.54
2023-02-22T16:34:08.095Z,48.56
2023-02-22T16:36:44.192Z,48.95
2023-02-22T16:39:20.142Z,49.04
2023-02-22T16:41:49.761Z,48.80
2023-02-22T16:44:19.676Z,49.35
2023-02-22T16:46:46.466Z,49.91
2023-02-22T16:49:14.023Z,49.68
2023-02-22T16:52:03.087Z,50.11
2023-02-22T16:54:34.454Z,50.18
2023-02-22T16:57:02.272Z,49.42
2023-02-22T16:59:32.999Z,49.40
2023-02-22T17:01:59.840Z,49.63
2023-02-22T17:04:26.696Z,49.63
2023-02-22T17:06:53.682Z,50.10
2023-02-22T17:09:20.959Z,50.14
2023-02-22T17:11:52.023Z,49.76
2023-02-22T17:14:21.893Z,49.77
2023-02-22T17:16:49.679Z,50.02
2023-02-22T17:19:19.925Z,49.87
2023-02-22T17:21:47.571Z,50.85
2023-02-22T17:24:17.792Z,50.24
2023-02-22T17:26:44.760Z,50.73
2023-02-22T17:29:11.736Z,50.12
2023-02-22T17:31:38.772Z,50.71
2023-02-22T17:34:06.579Z,51.42
2023-02-22T17:36:34.964Z,51.41
2023-02-22T17:39:02.382Z,51.69
2023-02-22T17:41:29.465Z,51.29
2023-02-22T17:43:56.458Z,52.51
2023-02-22T17:46:23.390Z,52.71
2023-02-22T17:48:50.343Z,53.07
2023-02-22T17:51:17.172Z,52.44
2023-02-22T17:53:43.941Z,52.38
2023-02-22T17:56:14.503Z,52.66
2023-02-22T17:58:41.941Z,53.03
2023-02-22T18:01:23.356Z,53.13
2023-02-22T18:03:51.692Z,53.63
2023-02-22T18:06:23.920Z,52.92
2023-02-22T18:08:56.421Z,52.69
2023-02-22T18:11:25.712Z,53.27
2023-02-22T18:13:57.228Z,52.99
2023-02-22T18:16:25.953Z,53.53
2023-02-22T18:18:54.049Z,53.93
2023-02-22T18:21:22.004Z,53.40
2023-02-22T18:23:49.268Z,53.55
2023-02-22T18:26:18.896Z,53.77
2023-02-22T18:28:46.679Z,53.73
2023-02-22T18:31:16.824Z,53.79
2023-02-22T18:33:51.049Z,53.88
2023-02-22T18:36:23.434Z,53.82
2023-02-22T18:38:53.395Z,53.77
2023-02-22T18:41:24.582Z,53.63
2023-02-22T18:43:52.018Z,53.59
2023-02-22T18:46:22.544Z,53.19
2023-02-22T18:48:55.298Z,52.52
2023-02-22T18:51:27.321Z,53.45
2023-02-22T18:53:57.063Z,52.55
2023-02-22T18:56:24.048Z,52.41
2023-02-22T18:58:56.321Z,52.08
2023-02-22T19:01:24.231Z,52.77
2023-02-22T19:03:52.805Z,53.10
2023-02-22T19:06:20.551Z,53.67
2023-02-22T19:08:47.709Z,53.17
2023-02-22T19:11:17.558Z,53.10
2023-02-22T19:13:45.985Z,52.98
2023-02-22T19:16:14.110Z,52.63
2023-02-22T19:18:41.331Z,53.04
2023-02-22T19:21:08.376Z,52.63
2023-02-22T19:23:39.828Z,52.58
2023-02-22T19:26:07.592Z,52.22
2023-02-22T19:28:35.638Z,53.16
2023-02-22T19:31:20.069Z,53.22
2023-02-22T19:33:51.653Z,53.46
2023-02-22T19:36:23.247Z,53.22
2023-02-22T19:38:50.921Z,53.40
2023-02-22T19:41:25.450Z,54.35
2023-02-22T19:43:55.445Z,53.72
2023-02-22T19:46:34.533Z,54.11
2023-02-22T19:49:02.922Z,53.67
2023-02-22T19:51:31.827Z,53.25
2023-02-22T19:54:01.634Z,53.40
2023-02-22T19:56:30.372Z,53.29
2023-02-22T19:59:11.242Z,53.33
2023-02-22T20:01:38.600Z,52.79
2023-02-22T20:04:09.267Z,53.69
2023-02-22T20:06:39.253Z,54.08
2023-02-22T20:09:11.486Z,54.01
2023-02-22T20:11:39.110Z,53.44
2023-02-22T20:14:06.625Z,53.65
2023-02-22T20:16:35.409Z,53.28
2023-02-22T20:19:02.657Z,53.34
2023-02-22T20:21:32.055Z,54.58
2023-02-22T20:24:06.614Z,54.28
2023-02-22T20:26:36.365Z,53.80
2023-02-22T20:29:06.242Z,55.15
2023-02-22T20:31:33.870Z,55.04
2023-02-22T20:34:01.784Z,54.66
2023-02-22T20:36:30.343Z,54.13
2023-02-22T20:38:59.587Z,53.75
2023-02-22T20:41:32.218Z,53.91
2023-02-22T20:44:00.465Z,53.98
2023-02-22T20:46:29.739Z,54.12
2023-02-22T20:49:01.839Z,53.82
2023-02-22T20:51:29.501Z,53.98
2023-02-22T20:54:00.425Z,54.13
2023-02-22T20:56:30.032Z,54.09
2023-02-22T20:58:58.387Z,55.03
2023-02-22T21:01:25.261Z,54.32
2023-02-22T21:03:52.261Z,54.46
2023-02-22T21:06:21.512Z,54.11
2023-02-22T21:08:56.822Z,53.96
2023-02-22T21:11:26.023Z,54.05
2023-02-22T21:13:53.405Z,54.73
2023-02-22T21:16:26.278Z,54.92
2023-02-22T21:18:55.206Z,55.14
2023-02-22T21:21:22.634Z,56.18
2023-02-22T21:23:52.091Z,56.16
2023-02-22T21:26:24.229Z,56.03
2023-02-22T21:28:54.940Z,55.56
2023-02-22T21:31:24.590Z,55.67
2023-02-22T21:33:53.638Z,55.59
2023-02-22T21:36:22.048Z,55.14
2023-02-22T21:38:49.076Z,55.17
2023-02-22T21:41:17.514Z,55.83
2023-02-22T21:43:49.364Z,55.79
2023-02-22T21:46:16.479Z,56.62
2023-02-22T21:48:44.642Z,56.52
2023-02-22T21:51:14.552Z,56.55
2023-02-22T21:53:45.452Z,57.17
2023-02-22T21:56:17.431Z,57.16
2023-02-22T21:58:44.693Z,58.10
2023-02-22T22:01:12.081Z,57.82
2023-02-22T22:03:39.045Z,57.54
2023-02-22T22:06:07.711Z,57.59
2023-02-22T22:08:34.475Z,57.56
2023-02-22T22:11:01.337Z,57.12
2023-02-22T22:13:28.196Z,57.09
2023-02-22T22:15:55.109Z,57.42
2023-02-22T22:18:22.015Z,57.87
2023-02-22T22:20:48.857Z,57.72
2023-02-22T22:23:15.712Z,57.94
2023-02-22T22:25:42.679Z,58.15
2023-02-22T22:28:16.209Z,58.29
2023-02-22T22:30:46.527Z,58.01
2023-02-22T22:33:16.870Z,58.36
2023-02-22T22:35:44.254Z,58.80
2023-02-22T22:38:13.831Z,58.45
2023-02-22T22:40:43.151Z,58.27
2023-02-22T22:43:09.997Z,58.20
2023-02-22T22:45:37.671Z,58.36
2023-02-22T22:48:04.425Z,57.85
2023-02-22T22:50:31.810Z,58.22
2023-02-22T22:53:05.423Z,58.24
2023-02-22T22:55:40.552Z,57.75
2023-02-22T22:58:09.174Z,57.85
2023-02-22T23:00:38.378Z,58.59
2023-02-22T23:03:15.964Z,59.39
2023-02-22T23:05:49.077Z,59.23
2023-02-22T23:08:16.110Z,60.19
2023-02-22T23:10:42.984Z,59.72
2023-02-22T23:13:11.839Z,59.91
2023-02-22T23:15:46.517Z,59.60
2023-02-22T23:18:14.289Z,59.95
2023-02-22T23:20:44.079Z,59.89
2023-02-22T23:23:11.008Z,59.14
2023-02-22T23:25:37.873Z,60.01
2023-02-22T23:28:04.725Z,60.12
2023-02-22T23:30:31.586Z,59.82
2023-02-22T23:32:58.450Z,58.93
2023-02-22T23:35:25.344Z,59.03
2023-02-22T23:37:52.883Z,59.18
2023-02-22T23:40:19.948Z,59.02
2023-02-22T23:42:54.596Z,59.08
2023-02-22T23:45:29.761Z,60.69
2023-02-22T23:47:58.168Z,61.91
2023-02-22T23:50:28.394Z,63.03
2023-02-22T23:53:00.834Z,62.83
2023-02-22T23:55:29.976Z,62.44
2023-02-22T23:57:56.895Z,64.28
